createdAt,value
2017-05-18T00:01:40.705Z,8.32
2017-05-18T00:04:09.862Z,9.44
2017-05-18T00:06:38.961Z,9.76
2017-05-18T00:09:08.054Z,9.16
2017-05-18T00:11:37.104Z,10.22
2017-05-18T00:14:06.906Z,9.74
2017-05-18T00:16:35.937Z,9.44
2017-05-18T00:19:05.016Z,10.00
2017-05-18T00:21:34.831Z,8.88
2017-05-18T00:24:04.682Z,9.68
2017-05-18T00:26:33.839Z,11.90
2017-05-18T00:29:03.619Z,9.60
2017-05-18T00:31:32.673Z,10.08
2017-05-18T00:34:01.702Z,10.00
2017-05-18T00:36:30.769Z,10.48
2017-05-18T00:38:59.813Z,9.64
2017-05-18T00:41:28.856Z,11.04
2017-05-18T00:43:57.900Z,10.02
2017-05-18T00:46:26.997Z,11.84
2017-05-18T00:48:56.115Z,10.70
2017-05-18T00:51:25.917Z,9.72
2017-05-18T00:53:55.714Z,10.60
2017-05-18T00:56:24.823Z,11.30
2017-05-18T00:58:54.637Z,10.62
2017-05-18T01:01:24.423Z,10.76
2017-05-18T01:03:53.479Z,10.10
2017-05-18T01:06:22.523Z,13.18
2017-05-18T01:08:51.633Z,11.62
2017-05-18T01:11:20.669Z,10.90
2017-05-18T01:13:49.729Z,11.66
2017-05-18T01:16:18.778Z,10.66
2017-05-18T01:18:47.875Z,10.92
2017-05-18T01:21:17.701Z,12.52
2017-05-18T01:23:47.579Z,12.14
2017-05-18T01:26:16.633Z,12.04
2017-05-18T01:28:45.697Z,10.92
2017-05-18T01:31:15.520Z,11.26
2017-05-18T01:33:45.326Z,10.82
2017-05-18T01:36:15.124Z,11.40
2017-05-18T01:38:44.323Z,11.32
2017-05-18T01:41:13.428Z,11.56
2017-05-18T01:43:43.255Z,11.54
2017-05-18T01:46:12.307Z,11.96
2017-05-18T01:48:41.389Z,11.86
2017-05-18T01:51:10.428Z,11.98
2017-05-18T01:53:40.220Z,11.96
2017-05-18T01:56:09.337Z,12.04
2017-05-18T01:58:39.146Z,12.66
2017-05-18T02:01:08.963Z,11.44
2017-05-18T02:03:38.769Z,11.74
2017-05-18T02:06:08.595Z,11.76
2017-05-18T02:08:37.681Z,11.06
2017-05-18T02:11:06.829Z,12.32
2017-05-18T02:13:36.645Z,12.08
2017-05-18T02:16:05.688Z,13.10
2017-05-18T02:18:34.847Z,10.68
2017-05-18T02:21:04.660Z,12.10
2017-05-18T02:23:34.473Z,11.94
2017-05-18T02:26:03.516Z,12.74
2017-05-18T02:28:32.592Z,12.16
2017-05-18T02:31:02.391Z,13.08
2017-05-18T02:33:31.436Z,11.90
2017-05-18T02:36:00.549Z,12.24
2017-05-18T02:38:30.351Z,11.62
2017-05-18T02:40:59.419Z,13.20
2017-05-18T02:43:28.477Z,12.30
2017-05-18T02:45:58.291Z,12.30
2017-05-18T02:48:27.364Z,11.98
2017-05-18T02:50:56.473Z,12.76
2017-05-18T02:53:26.378Z,12.48
2017-05-18T02:55:56.200Z,13.18
2017-05-18T02:58:25.994Z,12.88
2017-05-18T03:00:55.123Z,13.84
2017-05-18T03:03:24.214Z,13.44
2017-05-18T03:05:54.027Z,13.78
2017-05-18T03:08:23.086Z,13.20
2017-05-18T03:10:52.164Z,11.96
2017-05-18T03:13:21.220Z,12.76
2017-05-18T03:15:50.306Z,13.48
2017-05-18T03:18:20.101Z,12.22
2017-05-18T03:20:49.915Z,12.78
2017-05-18T03:23:18.967Z,14.48
2017-05-18T03:25:48.033Z,14.36
2017-05-18T03:28:17.076Z,13.44
2017-05-18T03:30:46.140Z,13.70
2017-05-18T03:33:15.290Z,13.64
2017-05-18T03:35:45.123Z,13.60
2017-05-18T03:38:14.171Z,14.60
2017-05-18T03:40:43.303Z,14.82
2017-05-18T03:43:13.101Z,15.08
2017-05-18T03:45:42.148Z,13.40
2017-05-18T03:48:11.299Z,14.44
2017-05-18T03:50:40.401Z,14.54
2017-05-18T03:53:10.214Z,14.88
2017-05-18T03:55:39.326Z,13.64
2017-05-18T03:58:09.127Z,16.10
2017-05-18T04:00:38.937Z,17.50
2017-05-18T04:03:08.721Z,14.28
2017-05-18T04:05:37.806Z,14.92
2017-05-18T04:08:07.617Z,14.04
2017-05-18T04:10:37.446Z,16.52
2017-05-18T04:13:07.354Z,15.40
2017-05-18T04:15:37.169Z,14.22
2017-05-18T04:18:07.091Z,14.46
2017-05-18T04:20:36.886Z,14.74
2017-05-18T04:23:06.035Z,17.42
2017-05-18T04:25:35.951Z,17.00
2017-05-18T04:28:05.737Z,15.16
2017-05-18T04:30:35.538Z,13.76
2017-05-18T04:33:04.595Z,13.38
2017-05-18T04:35:34.517Z,15.50
2017-05-18T04:38:03.614Z,14.50
2017-05-18T04:40:33.537Z,14.82
2017-05-18T04:43:03.357Z,12.50
2017-05-18T04:45:32.516Z,14.86
2017-05-18T04:48:01.584Z,15.48
2017-05-18T04:50:30.697Z,15.16
2017-05-18T04:53:01.608Z,13.92
2017-05-18T04:55:30.703Z,13.56
2017-05-18T04:58:00.506Z,13.84
2017-05-18T05:00:29.593Z,14.06
2017-05-18T05:03:00.152Z,13.74
2017-05-18T05:05:30.061Z,13.64
2017-05-18T05:08:00.894Z,15.40
2017-05-18T05:10:29.974Z,14.34
2017-05-18T05:12:59.772Z,15.22
2017-05-18T05:15:29.580Z,14.26
2017-05-18T05:17:58.638Z,13.64
2017-05-18T05:20:27.790Z,12.62
2017-05-18T05:22:57.707Z,13.62
2017-05-18T05:25:27.512Z,13.24
2017-05-18T05:27:57.317Z,13.72
2017-05-18T05:30:27.137Z,12.52
2017-05-18T05:32:57.059Z,12.76
2017-05-18T05:35:26.890Z,13.76
2017-05-18T05:37:55.962Z,16.14
2017-05-18T05:40:25.875Z,12.80
2017-05-18T05:42:55.682Z,12.82
2017-05-18T05:45:25.490Z,12.26
2017-05-18T05:47:54.538Z,12.44
2017-05-18T05:50:23.699Z,12.92
2017-05-18T05:52:53.581Z,13.72
2017-05-18T05:55:22.663Z,11.34
2017-05-18T05:57:51.716Z,12.78
2017-05-18T06:00:20.761Z,13.16
2017-05-18T06:02:49.829Z,12.86
2017-05-18T06:05:18.992Z,16.44
2017-05-18T06:07:48.903Z,11.98
2017-05-18T06:10:18.698Z,11.56
2017-05-18T06:12:47.822Z,12.56
2017-05-18T06:15:17.629Z,12.04
2017-05-18T06:17:47.536Z,12.12
2017-05-18T06:20:17.326Z,12.02
2017-05-18T06:22:46.478Z,11.84
2017-05-18T06:25:15.692Z,11.58
2017-05-18T06:27:44.745Z,11.76
2017-05-18T06:30:14.659Z,12.72
2017-05-18T06:32:44.474Z,11.58
2017-05-18T06:35:14.384Z,11.94
2017-05-18T06:37:44.198Z,10.98
2017-05-18T06:40:13.266Z,12.70
2017-05-18T06:42:42.310Z,16.52
2017-05-18T06:45:11.372Z,13.20
2017-05-18T06:47:40.496Z,14.74
2017-05-18T06:50:09.537Z,9.54
2017-05-18T06:52:38.618Z,12.60
2017-05-18T06:55:07.774Z,12.62
2017-05-18T06:57:37.675Z,10.04
2017-05-18T07:00:06.725Z,10.38
2017-05-18T07:02:35.879Z,11.86
2017-05-18T07:05:05.789Z,13.00
2017-05-18T07:07:34.839Z,11.44
2017-05-18T07:10:03.915Z,9.56
2017-05-18T07:12:33.047Z,12.24
2017-05-18T07:15:02.908Z,9.26
2017-05-18T07:17:32.041Z,9.22
2017-05-18T07:20:01.085Z,21.44
2017-05-18T07:22:30.547Z,9.56
2017-05-18T07:24:59.587Z,10.76
2017-05-18T07:27:28.739Z,12.68
2017-05-18T07:29:58.553Z,7.82
2017-05-18T07:32:28.366Z,12.52
2017-05-18T07:34:58.199Z,10.66
2017-05-18T07:37:27.984Z,8.34
2017-05-18T07:39:57.024Z,8.46
2017-05-18T07:42:26.077Z,9.34
2017-05-18T07:44:55.173Z,9.16
2017-05-18T07:47:24.282Z,8.62
2017-05-18T07:49:54.081Z,8.50
2017-05-18T07:52:23.114Z,9.20
2017-05-18T07:54:52.159Z,8.88
2017-05-18T07:57:21.204Z,8.30
2017-05-18T07:59:50.266Z,8.64
2017-05-18T08:02:19.290Z,7.84
2017-05-18T08:04:48.327Z,8.16
2017-05-18T08:07:17.370Z,8.54
2017-05-18T08:09:46.437Z,9.38
2017-05-18T08:12:15.505Z,8.36
2017-05-18T08:14:44.629Z,8.30
2017-05-18T08:17:13.740Z,8.78
2017-05-18T08:19:43.513Z,8.18
2017-05-18T08:22:12.659Z,10.72
2017-05-18T08:24:41.747Z,11.24
2017-05-18T08:27:11.654Z,7.92
2017-05-18T08:29:41.469Z,9.42
2017-05-18T08:32:11.268Z,10.04
2017-05-18T08:34:40.382Z,8.12
2017-05-18T08:37:10.185Z,11.38
2017-05-18T08:39:40.034Z,8.96
2017-05-18T08:42:09.194Z,8.40
2017-05-18T08:44:38.237Z,7.24
2017-05-18T08:47:07.282Z,8.22
2017-05-18T08:49:36.338Z,7.56
2017-05-18T08:52:05.498Z,7.82
2017-05-18T08:54:35.274Z,8.82
2017-05-18T08:57:04.402Z,14.02
2017-05-18T08:59:33.448Z,7.52
2017-05-18T09:02:02.489Z,8.12
2017-05-18T09:04:32.285Z,8.06
2017-05-18T09:07:01.385Z,7.94
2017-05-18T09:09:30.459Z,11.00
2017-05-18T09:11:59.577Z,6.78
2017-05-18T09:14:29.490Z,8.42
2017-05-18T09:16:58.525Z,7.96
2017-05-18T09:19:27.691Z,7.60
2017-05-18T09:21:57.489Z,7.02
2017-05-18T09:24:26.592Z,8.76
2017-05-18T09:26:56.385Z,9.26
2017-05-18T09:29:25.431Z,13.18
2017-05-18T09:31:54.602Z,11.36
2017-05-18T09:34:24.414Z,8.46
2017-05-18T09:36:54.235Z,10.44
2017-05-18T09:39:24.045Z,7.16
2017-05-18T09:41:53.850Z,8.52
2017-05-18T09:44:22.945Z,7.84
2017-05-18T09:46:52.026Z,8.62
2017-05-18T09:49:21.039Z,6.82
2017-05-18T09:51:50.849Z,7.74
2017-05-18T09:54:20.672Z,7.94
2017-05-18T09:56:50.475Z,8.10
2017-05-18T09:59:19.567Z,8.22
2017-05-18T10:01:48.673Z,8.46
2017-05-18T10:04:18.457Z,7.70
2017-05-18T10:06:47.581Z,8.26
2017-05-18T10:09:17.390Z,10.26
2017-05-18T10:11:47.258Z,8.98
2017-05-18T10:14:17.013Z,10.42
2017-05-18T10:16:46.122Z,9.06
2017-05-18T10:19:15.922Z,8.08
2017-05-18T10:21:44.978Z,8.20
2017-05-18T10:24:14.109Z,9.48
2017-05-18T10:26:43.209Z,8.90
2017-05-18T10:29:12.990Z,8.94
2017-05-18T10:31:42.117Z,8.92
2017-05-18T10:34:11.149Z,9.26
2017-05-18T10:36:40.198Z,7.04
2017-05-18T10:39:09.311Z,7.04
2017-05-18T10:41:38.401Z,7.48
2017-05-18T10:44:08.170Z,8.20
2017-05-18T10:46:37.224Z,8.02
2017-05-18T10:49:06.406Z,7.30
2017-05-18T10:51:35.434Z,8.28
2017-05-18T10:54:04.500Z,7.86
2017-05-18T10:56:34.286Z,18.40
2017-05-18T10:59:03.407Z,11.18
2017-05-18T11:01:33.227Z,7.76
2017-05-18T11:04:03.013Z,7.98
2017-05-18T11:06:32.124Z,7.68
2017-05-18T11:09:01.223Z,7.62
2017-05-18T11:11:30.418Z,6.72
2017-05-18T11:13:59.514Z,7.90
2017-05-18T11:16:28.711Z,7.14
2017-05-18T11:18:57.812Z,8.22
2017-05-18T11:21:26.910Z,8.16
2017-05-18T11:23:56.005Z,8.56
2017-05-18T11:26:25.826Z,7.78
2017-05-18T11:28:55.598Z,7.32
2017-05-18T11:31:24.732Z,8.02
2017-05-18T11:33:54.539Z,7.18
2017-05-18T11:36:23.645Z,7.82
2017-05-18T11:38:53.442Z,8.28
2017-05-18T11:41:22.549Z,10.40
2017-05-18T11:43:52.354Z,7.72
2017-05-18T11:46:21.464Z,7.10
2017-05-18T11:48:51.264Z,7.72
2017-05-18T11:51:20.358Z,7.40
2017-05-18T11:53:49.463Z,6.96
2017-05-18T11:56:19.229Z,7.08
2017-05-18T11:58:48.374Z,6.90
2017-05-18T12:01:18.151Z,6.58
2017-05-18T12:03:47.290Z,7.42
2017-05-18T12:06:17.099Z,6.58
2017-05-18T12:08:46.921Z,7.34
2017-05-18T12:11:16.710Z,9.90
2017-05-18T12:13:45.817Z,7.12
2017-05-18T12:16:15.583Z,8.32
2017-05-18T12:18:44.733Z,6.86
2017-05-18T12:21:13.773Z,7.60
2017-05-18T12:23:43.565Z,8.64
2017-05-18T12:26:12.647Z,6.84
2017-05-18T12:28:41.762Z,7.02
2017-05-18T12:31:10.858Z,6.60
2017-05-18T12:33:40.634Z,6.76
2017-05-18T12:36:09.761Z,6.42
2017-05-18T12:38:39.582Z,6.56
2017-05-18T12:41:09.034Z,6.38
2017-05-18T12:43:38.069Z,6.62
2017-05-18T12:46:07.386Z,6.08
2017-05-18T12:48:36.854Z,6.44
2017-05-18T12:51:06.630Z,6.92
2017-05-18T12:53:35.681Z,7.16
2017-05-18T12:56:04.740Z,7.12
2017-05-18T12:58:33.838Z,6.66
2017-05-18T13:01:02.941Z,6.34
2017-05-18T13:03:32.757Z,6.68
2017-05-18T13:06:02.575Z,7.40
2017-05-18T13:08:32.366Z,6.76
2017-05-18T13:11:01.474Z,6.92
2017-05-18T13:13:36.401Z,6.42
2017-05-18T13:16:05.431Z,5.74
2017-05-18T13:18:34.609Z,5.74
2017-05-18T13:21:04.440Z,5.92
2017-05-18T13:23:33.501Z,5.50
2017-05-18T13:26:02.605Z,6.16
2017-05-18T13:28:32.379Z,6.12
2017-05-18T13:31:01.427Z,6.14
2017-05-18T13:33:31.227Z,6.50
2017-05-18T13:36:01.012Z,6.30
2017-05-18T13:38:30.059Z,5.38
2017-05-18T13:40:59.121Z,5.92
2017-05-18T13:43:28.150Z,5.22
2017-05-18T13:45:57.197Z,6.06
2017-05-18T13:48:26.231Z,6.14
2017-05-18T13:50:55.280Z,5.26
2017-05-18T13:53:24.315Z,5.56
2017-05-18T13:55:54.231Z,5.88
2017-05-18T13:58:24.024Z,5.98
2017-05-18T14:00:53.057Z,5.84
2017-05-18T14:03:22.114Z,8.02
2017-05-18T14:05:51.145Z,6.86
2017-05-18T14:08:20.214Z,5.48
2017-05-18T14:10:49.255Z,5.36
2017-05-18T14:13:18.393Z,6.26
2017-05-18T14:15:47.425Z,6.16
2017-05-18T14:18:16.486Z,6.00
2017-05-18T14:20:45.598Z,6.42
2017-05-18T14:23:15.519Z,6.56
2017-05-18T14:25:44.555Z,5.96
2017-05-18T14:28:13.598Z,6.22
2017-05-18T14:30:43.398Z,5.70
2017-05-18T14:33:12.466Z,6.36
2017-05-18T14:35:41.502Z,5.70
2017-05-18T14:38:11.277Z,7.20
2017-05-18T14:40:40.318Z,6.68
2017-05-18T14:43:09.376Z,5.38
2017-05-18T14:45:38.489Z,5.60
2017-05-18T14:48:07.522Z,5.72
2017-05-18T14:50:36.677Z,4.94
2017-05-18T14:53:05.707Z,5.36
2017-05-18T14:55:34.755Z,5.30
2017-05-18T14:58:04.804Z,5.76
2017-05-18T15:00:33.880Z,6.24
2017-05-18T15:03:02.928Z,7.00
2017-05-18T15:05:32.741Z,5.54
2017-05-18T15:08:02.516Z,5.80
2017-05-18T15:10:31.565Z,6.82
2017-05-18T15:13:00.605Z,5.78
2017-05-18T15:15:29.725Z,5.40
2017-05-18T15:17:58.757Z,5.64
2017-05-18T15:20:27.816Z,5.40
2017-05-18T15:22:56.839Z,5.80
2017-05-18T15:25:25.910Z,5.56
2017-05-18T15:27:55.718Z,5.48
2017-05-18T15:30:24.914Z,5.42
2017-05-18T15:32:53.950Z,6.46
2017-05-18T15:35:23.006Z,6.36
2017-05-18T15:37:52.057Z,5.50
2017-05-18T15:40:21.199Z,6.26
2017-05-18T15:42:50.296Z,8.92
2017-05-18T15:45:19.339Z,11.56
2017-05-18T15:47:48.405Z,31.26
2017-05-18T15:50:17.450Z,7.52
2017-05-18T15:52:46.518Z,6.90
2017-05-18T15:55:15.555Z,6.80
2017-05-18T15:57:44.677Z,6.20
2017-05-18T16:00:14.456Z,8.80
2017-05-18T16:02:43.580Z,10.76
2017-05-18T16:05:13.389Z,9.26
2017-05-18T16:07:42.454Z,8.44
2017-05-18T16:10:11.489Z,8.06
2017-05-18T16:12:41.280Z,10.88
2017-05-18T16:15:10.337Z,7.06
2017-05-18T16:17:39.379Z,6.52
2017-05-18T16:20:08.526Z,6.34
2017-05-18T16:22:38.303Z,6.20
2017-05-18T16:25:07.415Z,7.90
2017-05-18T16:27:36.458Z,6.40
2017-05-18T16:30:05.625Z,5.90
2017-05-18T16:32:35.443Z,6.58
2017-05-18T16:35:04.483Z,8.70
2017-05-18T16:37:33.541Z,11.74
2017-05-18T16:40:02.589Z,22.92
2017-05-18T16:42:31.701Z,7.68
2017-05-18T16:45:00.812Z,6.38
2017-05-18T16:47:30.608Z,6.72
2017-05-18T16:49:59.723Z,10.04
2017-05-18T16:52:29.527Z,10.46
2017-05-18T16:54:59.344Z,8.00
2017-05-18T16:57:29.273Z,6.10
2017-05-18T16:59:58.305Z,7.30
2017-05-18T17:02:27.491Z,8.06
2017-05-18T17:04:56.535Z,7.40
2017-05-18T17:07:25.583Z,7.66
2017-05-18T17:09:54.737Z,7.34
2017-05-18T17:12:23.789Z,7.06
2017-05-18T17:14:52.892Z,10.30
2017-05-18T17:17:21.913Z,12.28
2017-05-18T17:19:51.727Z,13.08
2017-05-18T17:22:21.537Z,9.20
2017-05-18T17:24:51.336Z,20.20
2017-05-18T17:27:20.383Z,52.16
2017-05-18T17:29:49.437Z,63.26
2017-05-18T17:32:18.559Z,13.30
2017-05-18T17:34:47.607Z,12.48
2017-05-18T17:37:16.733Z,23.04
2017-05-18T17:39:46.578Z,23.84
2017-05-18T17:42:15.756Z,32.68
2017-05-18T17:44:45.554Z,83.24
2017-05-18T17:47:15.352Z,98.86
2017-05-18T17:49:44.397Z,12.40
2017-05-18T17:52:13.451Z,16.74
2017-05-18T17:54:42.516Z,24.32
2017-05-18T17:57:11.557Z,22.78
2017-05-18T17:59:41.366Z,13.70
2017-05-18T18:02:11.163Z,7.84
2017-05-18T18:04:40.318Z,29.18
2017-05-18T18:07:09.495Z,10.42
2017-05-18T18:09:38.577Z,9.20
2017-05-18T18:12:08.349Z,9.02
2017-05-18T18:14:37.401Z,9.98
2017-05-18T18:17:06.446Z,9.84
2017-05-18T18:19:35.510Z,8.42
2017-05-18T18:22:04.557Z,8.94
2017-05-18T18:24:34.369Z,9.76
2017-05-18T18:27:04.166Z,11.28
2017-05-18T18:29:33.214Z,8.30
2017-05-18T18:32:02.309Z,9.52
2017-05-18T18:34:31.367Z,17.60
2017-05-18T18:37:00.426Z,12.38
2017-05-18T18:39:29.469Z,19.44
2017-05-18T18:41:58.553Z,14.86
2017-05-18T18:44:28.347Z,32.80
2017-05-18T18:46:57.406Z,12.58
2017-05-18T18:49:26.458Z,9.14
2017-05-18T18:51:56.277Z,9.06
2017-05-18T18:54:26.059Z,8.86
2017-05-18T18:56:55.193Z,9.18
2017-05-18T18:59:24.986Z,9.66
2017-05-18T19:01:54.816Z,8.08
2017-05-18T19:04:24.623Z,9.02
2017-05-18T19:06:54.431Z,8.46
2017-05-18T19:09:24.258Z,10.54
2017-05-18T19:11:54.047Z,8.98
2017-05-18T19:14:23.099Z,20.00
2017-05-18T19:16:52.137Z,12.66
2017-05-18T19:19:21.938Z,9.08
2017-05-18T19:21:50.981Z,10.96
2017-05-18T19:24:20.056Z,10.18
2017-05-18T19:26:49.119Z,12.88
2017-05-18T19:29:18.174Z,12.64
2017-05-18T19:31:47.235Z,11.78
2017-05-18T19:34:20.158Z,12.34
2017-05-18T19:36:49.246Z,12.36
2017-05-18T19:39:18.317Z,12.10
2017-05-18T19:41:48.221Z,13.92
2017-05-18T19:44:18.009Z,10.42
2017-05-18T19:46:47.129Z,12.10
2017-05-18T19:49:16.959Z,13.82
2017-05-18T19:51:46.773Z,10.24
2017-05-18T19:54:16.557Z,11.44
2017-05-18T19:56:45.683Z,12.58
2017-05-18T19:59:15.479Z,10.98
2017-05-18T20:01:45.293Z,10.78
2017-05-18T20:04:15.088Z,11.24
2017-05-18T20:06:45.083Z,12.64
2017-05-18T20:09:14.336Z,13.74
2017-05-18T20:11:44.587Z,12.88
2017-05-18T20:14:13.694Z,13.18
2017-05-18T20:16:43.785Z,13.80
2017-05-18T20:19:12.946Z,12.62
2017-05-18T20:21:42.208Z,13.00
2017-05-18T20:24:12.235Z,11.68
2017-05-18T20:26:41.333Z,11.38
2017-05-18T20:29:10.505Z,11.46
2017-05-18T20:31:39.669Z,12.08
2017-05-18T20:34:08.788Z,13.20
2017-05-18T20:36:37.860Z,13.50
2017-05-18T20:39:07.038Z,13.52
2017-05-18T20:41:36.078Z,12.38
2017-05-18T20:44:05.134Z,12.24
2017-05-18T20:46:34.173Z,11.86
2017-05-18T20:49:03.314Z,11.80
2017-05-18T20:51:33.125Z,12.40
2017-05-18T20:54:02.947Z,13.34
2017-05-18T20:56:32.748Z,11.92
2017-05-18T20:59:02.574Z,11.48
2017-05-18T21:01:32.366Z,12.54
2017-05-18T21:04:01.491Z,12.90
2017-05-18T21:06:30.568Z,11.48
2017-05-18T21:09:00.506Z,11.76
2017-05-18T21:11:29.591Z,14.38
2017-05-18T21:13:59.405Z,12.36
2017-05-18T21:16:29.256Z,11.84
2017-05-18T21:18:58.670Z,11.62
2017-05-18T21:21:28.134Z,11.66
2017-05-18T21:23:57.303Z,10.96
2017-05-18T21:26:26.359Z,11.06
2017-05-18T21:28:55.420Z,11.36
2017-05-18T21:31:24.523Z,10.00
2017-05-18T21:33:53.599Z,9.90
2017-05-18T21:36:23.408Z,10.76
2017-05-18T21:38:53.213Z,10.80
2017-05-18T21:41:23.024Z,10.82
2017-05-18T21:43:52.075Z,13.22
2017-05-18T21:46:21.141Z,10.92
2017-05-18T21:48:50.207Z,12.58
2017-05-18T21:51:19.342Z,13.46
2017-05-18T21:53:48.382Z,11.78
2017-05-18T21:56:17.505Z,13.68
2017-05-18T21:58:47.328Z,13.36
2017-05-18T22:01:17.235Z,13.18
2017-05-18T22:03:46.360Z,13.78
2017-05-18T22:06:16.291Z,12.14
2017-05-18T22:08:45.654Z,11.50
2017-05-18T22:11:14.714Z,12.34
2017-05-18T22:13:43.756Z,12.78
2017-05-18T22:16:13.566Z,11.86
2017-05-18T22:18:43.386Z,12.12
2017-05-18T22:21:13.185Z,12.32
2017-05-18T22:23:42.261Z,12.48
2017-05-18T22:26:11.313Z,11.20
2017-05-18T22:28:40.438Z,11.84
2017-05-18T22:31:10.355Z,12.50
2017-05-18T22:33:40.165Z,13.20
2017-05-18T22:36:09.969Z,12.62
2017-05-18T22:38:39.088Z,11.90
2017-05-18T22:41:08.172Z,12.66
2017-05-18T22:43:38.087Z,13.00
2017-05-18T22:46:07.990Z,12.66
2017-05-18T22:48:37.043Z,13.44
2017-05-18T22:51:06.098Z,16.80
2017-05-18T22:53:36.026Z,13.36
2017-05-18T22:56:05.107Z,14.52
2017-05-18T22:58:34.913Z,14.22
2017-05-18T23:01:04.705Z,13.98
2017-05-18T23:03:33.817Z,12.84
2017-05-18T23:06:03.629Z,12.12
2017-05-18T23:08:33.457Z,13.78
2017-05-18T23:11:03.252Z,12.76
2017-05-18T23:13:33.079Z,13.38
2017-05-18T23:16:03.805Z,13.24
2017-05-18T23:18:33.631Z,13.22
2017-05-18T23:21:03.420Z,12.94
2017-05-18T23:23:32.538Z,12.18
2017-05-18T23:26:02.341Z,13.14
2017-05-18T23:28:32.262Z,13.48
2017-05-18T23:31:02.062Z,13.86
2017-05-18T23:33:31.887Z,13.22
2017-05-18T23:36:01.797Z,13.38
2017-05-18T23:38:31.582Z,14.06
2017-05-18T23:41:00.655Z,13.36
2017-05-18T23:43:29.700Z,13.84
2017-05-18T23:45:59.509Z,13.56
2017-05-18T23:48:29.297Z,15.46
2017-05-18T23:50:58.365Z,13.66
2017-05-18T23:53:27.430Z,14.02
2017-05-18T23:55:57.229Z,14.76
2017-05-18T23:58:27.037Z,14.16
